KBWG/BWG METAR and TAF weather

Enter ICAO airport designator
Station Type Date Time Source
KBWG METAR 2021/07/26 15:39 UTC NOAA

KBWG 261539Z AUTO 00000KT 10SM BKN022 BKN027 BKN110 31/23 A3001 RMK AO2 T03060233


Station Type Date Time Source
KBWG Decoded METAR 2021/07/26 15:39 UTC NOAA

BOWLING GREEN-WARREN CO RGNL, KY, United States (KBWG) 36-58N 086-25W 161M
Jul 26, 2021 - 11:39 AM EDT / 2021.07.26 1539 UTC
Wind: Calm:0
Visibility: 10 mile(s):0
Sky conditions: mostly cloudy
Temperature: 87.1 F (30.6 C)
Heat index: 95.4 F (35.2 C):1
Dew Point: 73.9 F (23.3 C)
Relative Humidity: 65%
Pressure (altimeter): 30.01 in. Hg (1016 hPa)
ob: KBWG 261539Z AUTO 00000KT 10SM BKN022 BKN027 BKN110 31/23 A3001 RMK AO2 T03060233
cycle: 15

Station Type Date Time Source
KBWG TAF 2021/07/26 12:22 UTC NOAA

TAF KBWG 261120Z 2612/2712 00000KT P6SM BKN120
TEMPO 2612/2613 4SM BR SCT120
FM261500 02006KT P6SM VCSH BKN035
FM270100 00000KT P6SM SKC

Example: see airport list